createdAt,value
2019-03-19T00:02:32.240Z,75.00
2019-03-19T00:05:04.616Z,75.30
2019-03-19T00:07:36.996Z,75.40
2019-03-19T00:10:10.436Z,75.60
2019-03-19T00:12:43.277Z,75.80
2019-03-19T00:15:16.076Z,75.50
2019-03-19T00:17:49.165Z,75.50
2019-03-19T00:20:21.996Z,75.60
2019-03-19T00:22:55.120Z,75.60
2019-03-19T00:25:30.324Z,75.40
2019-03-19T00:28:00.917Z,75.30
2019-03-19T00:30:33.720Z,75.10
2019-03-19T00:33:06.778Z,75.30
2019-03-19T00:35:39.561Z,75.40
2019-03-19T00:38:12.196Z,75.30
2019-03-19T00:40:45.698Z,75.00
2019-03-19T00:43:18.516Z,75.60
2019-03-19T00:45:50.616Z,74.50
2019-03-19T00:48:23.863Z,74.40
2019-03-19T00:50:56.776Z,74.70
2019-03-19T00:53:29.616Z,74.60
2019-03-19T00:56:03.017Z,74.50
2019-03-19T00:58:34.696Z,74.70
2019-03-19T01:01:07.756Z,74.50
2019-03-19T01:03:40.717Z,74.50
2019-03-19T01:06:14.337Z,74.80
2019-03-19T01:08:47.397Z,74.60
2019-03-19T01:11:19.745Z,75.00
2019-03-19T01:13:52.366Z,75.40
2019-03-19T01:16:25.665Z,76.10
2019-03-19T01:18:58.469Z,75.50
2019-03-19T01:21:30.964Z,75.50
2019-03-19T01:24:04.145Z,75.30
2019-03-19T01:26:37.266Z,75.30
2019-03-19T01:29:10.625Z,76.30
2019-03-19T01:31:44.465Z,75.60
2019-03-19T01:34:18.065Z,75.70
2019-03-19T01:36:50.785Z,76.00
2019-03-19T01:39:23.265Z,75.80
2019-03-19T01:41:56.405Z,75.50
2019-03-19T01:44:29.065Z,76.10
2019-03-19T01:47:02.510Z,76.40
2019-03-19T01:49:35.365Z,76.40
2019-03-19T01:52:08.053Z,76.10
2019-03-19T01:54:40.946Z,76.30
2019-03-19T01:57:15.586Z,76.20
2019-03-19T01:59:48.669Z,76.10
2019-03-19T02:02:22.564Z,76.20
2019-03-19T02:04:56.144Z,76.40
2019-03-19T02:07:28.729Z,76.10
2019-03-19T02:10:01.528Z,76.20
2019-03-19T02:12:34.486Z,76.40
2019-03-19T02:15:07.505Z,76.50
2019-03-19T02:17:40.547Z,76.70
2019-03-19T02:20:13.506Z,76.90
2019-03-19T02:22:46.086Z,76.80
2019-03-19T02:25:18.846Z,77.00
2019-03-19T02:27:51.929Z,77.30
2019-03-19T02:30:24.967Z,77.20
2019-03-19T02:32:57.708Z,77.00
2019-03-19T02:35:30.706Z,77.30
2019-03-19T02:38:03.947Z,77.50
2019-03-19T02:40:37.126Z,77.70
2019-03-19T02:43:10.484Z,77.50
2019-03-19T02:45:44.307Z,77.40
2019-03-19T02:48:17.732Z,77.40
2019-03-19T02:50:50.512Z,77.50
2019-03-19T02:53:23.229Z,77.60
2019-03-19T02:55:55.446Z,77.40
2019-03-19T02:58:28.189Z,77.30
2019-03-19T03:01:02.326Z,77.40
2019-03-19T03:03:35.424Z,77.00
2019-03-19T03:06:08.247Z,77.00
2019-03-19T03:08:41.528Z,77.50
2019-03-19T03:11:15.016Z,77.60
2019-03-19T03:13:47.300Z,77.80
2019-03-19T03:16:19.634Z,76.90
2019-03-19T03:18:52.086Z,77.10
2019-03-19T03:21:25.645Z,76.60
2019-03-19T03:23:59.186Z,76.80
2019-03-19T03:26:46.417Z,76.70
2019-03-19T03:29:07.587Z,77.10
2019-03-19T03:31:39.794Z,77.70
2019-03-19T03:34:13.354Z,77.50
2019-03-19T03:36:46.631Z,77.30
2019-03-19T03:39:19.694Z,77.50
2019-03-19T03:41:51.926Z,77.90
2019-03-19T03:44:25.286Z,77.70
2019-03-19T03:46:58.746Z,77.10
2019-03-19T03:49:32.229Z,77.70
2019-03-19T03:52:05.526Z,77.10
2019-03-19T03:54:37.763Z,76.70
2019-03-19T03:57:10.071Z,76.50
2019-03-19T03:59:43.106Z,77.00
2019-03-19T04:02:15.726Z,77.80
2019-03-19T04:04:49.049Z,77.30
2019-03-19T04:07:22.050Z,76.70
2019-03-19T04:09:54.245Z,76.50
2019-03-19T04:12:26.886Z,76.50
2019-03-19T04:14:59.805Z,77.00
2019-03-19T04:17:33.280Z,76.30
2019-03-19T04:20:07.446Z,76.30
2019-03-19T04:22:40.791Z,77.00
2019-03-19T04:25:14.305Z,76.80
2019-03-19T04:27:47.347Z,76.50
2019-03-19T04:30:19.777Z,76.90
2019-03-19T04:32:52.854Z,77.00
2019-03-19T04:35:25.586Z,77.30
2019-03-19T04:37:58.325Z,77.20
2019-03-19T04:40:31.206Z,76.90
2019-03-19T04:43:04.006Z,77.50
2019-03-19T04:45:36.733Z,77.60
2019-03-19T04:48:09.506Z,77.40
2019-03-19T04:50:41.526Z,77.30
2019-03-19T04:53:15.445Z,76.80
2019-03-19T04:55:49.425Z,77.30
2019-03-19T04:58:21.887Z,77.50
2019-03-19T05:00:55.185Z,77.60
2019-03-19T05:03:27.625Z,78.10
2019-03-19T05:06:00.686Z,78.00
2019-03-19T05:08:33.467Z,78.10
2019-03-19T05:11:06.522Z,77.90
2019-03-19T05:13:39.140Z,77.70
2019-03-19T05:16:11.585Z,78.00
2019-03-19T05:18:44.530Z,78.20
2019-03-19T05:21:16.905Z,78.00
2019-03-19T05:23:49.345Z,78.10
2019-03-19T05:26:21.724Z,78.00
2019-03-19T05:28:54.647Z,78.10
2019-03-19T05:31:26.845Z,78.30
2019-03-19T05:33:59.825Z,78.00
2019-03-19T05:36:32.306Z,77.10
2019-03-19T05:39:05.325Z,76.90
2019-03-19T05:41:38.609Z,76.90
2019-03-19T05:44:11.566Z,77.10
2019-03-19T05:46:45.204Z,76.80
2019-03-19T05:49:18.725Z,76.90
2019-03-19T05:51:51.125Z,76.50
2019-03-19T05:54:24.185Z,76.70
2019-03-19T05:56:56.805Z,77.30
2019-03-19T05:59:30.125Z,77.50
2019-03-19T06:02:03.465Z,77.90
2019-03-19T06:04:35.625Z,77.80
2019-03-19T06:07:13.725Z,78.00
2019-03-19T06:09:46.226Z,78.20
2019-03-19T06:12:19.144Z,77.40
2019-03-19T06:14:51.986Z,77.00
2019-03-19T06:17:25.045Z,77.20
2019-03-19T06:19:57.186Z,77.70
2019-03-19T06:22:29.365Z,77.10
2019-03-19T06:25:02.059Z,77.60
2019-03-19T06:27:35.126Z,77.60
2019-03-19T06:30:08.325Z,77.60
2019-03-19T06:32:40.726Z,78.10
2019-03-19T06:35:13.847Z,78.50
2019-03-19T06:37:46.226Z,78.10
2019-03-19T06:40:18.466Z,78.60
2019-03-19T06:42:51.705Z,79.10
2019-03-19T06:45:24.705Z,79.60
2019-03-19T06:47:57.724Z,80.00
2019-03-19T06:50:31.670Z,80.00
2019-03-19T06:53:04.465Z,79.70
2019-03-19T06:55:36.886Z,80.50
2019-03-19T06:58:11.301Z,78.80
2019-03-19T07:00:44.465Z,79.30
2019-03-19T07:03:17.625Z,79.30
2019-03-19T07:05:50.385Z,78.90
2019-03-19T07:08:23.485Z,79.00
2019-03-19T07:10:55.285Z,78.50
2019-03-19T07:13:27.866Z,78.50
2019-03-19T07:16:00.766Z,77.90
2019-03-19T07:18:33.914Z,78.30
2019-03-19T07:21:06.627Z,77.80
2019-03-19T07:23:39.065Z,77.00
2019-03-19T07:26:11.626Z,76.80
2019-03-19T07:28:44.480Z,77.00
2019-03-19T07:31:17.286Z,76.40
2019-03-19T07:33:49.913Z,75.80
2019-03-19T07:36:23.166Z,76.60
2019-03-19T07:38:55.425Z,75.90
2019-03-19T07:41:28.506Z,75.80
2019-03-19T07:44:01.225Z,76.40
2019-03-19T07:46:33.709Z,76.00
2019-03-19T07:49:05.946Z,75.30
2019-03-19T07:51:39.605Z,75.50
2019-03-19T07:54:12.008Z,75.80
2019-03-19T07:56:44.145Z,75.50
2019-03-19T07:59:17.665Z,75.50
2019-03-19T08:01:51.545Z,76.20
2019-03-19T08:04:23.787Z,76.50
2019-03-19T08:06:56.863Z,75.80
2019-03-19T08:09:30.344Z,75.90
2019-03-19T08:12:03.436Z,75.60
2019-03-19T08:14:36.669Z,75.00
2019-03-19T08:17:09.486Z,74.90
2019-03-19T08:19:42.445Z,75.20
2019-03-19T08:22:14.685Z,74.80
2019-03-19T08:24:47.247Z,73.10
2019-03-19T08:27:20.105Z,72.50
2019-03-19T08:29:52.638Z,71.50
2019-03-19T08:32:25.725Z,69.10
2019-03-19T08:34:57.986Z,69.10
2019-03-19T08:37:30.565Z,71.00
2019-03-19T08:40:03.967Z,72.30
2019-03-19T08:42:34.925Z,72.20
2019-03-19T08:45:07.885Z,71.80
2019-03-19T08:47:41.185Z,72.10
2019-03-19T08:50:15.146Z,71.90
2019-03-19T08:52:47.718Z,71.80
2019-03-19T08:55:20.248Z,71.70
2019-03-19T08:57:53.065Z,71.30
2019-03-19T09:00:25.888Z,71.00
2019-03-19T09:02:58.685Z,71.10
2019-03-19T09:05:31.445Z,70.10
2019-03-19T09:08:04.145Z,69.50
2019-03-19T09:10:36.945Z,68.50
2019-03-19T09:13:09.145Z,69.40
2019-03-19T09:15:42.539Z,69.00
2019-03-19T09:18:16.505Z,68.00
2019-03-19T09:20:49.593Z,67.10
2019-03-19T09:23:22.306Z,67.60
2019-03-19T09:25:56.465Z,66.20
2019-03-19T09:28:29.387Z,67.40
2019-03-19T09:31:01.602Z,67.20
2019-03-19T09:33:35.058Z,67.20
2019-03-19T09:36:08.059Z,67.10
2019-03-19T09:38:40.418Z,66.60
2019-03-19T09:41:13.178Z,65.60
2019-03-19T09:43:46.619Z,66.30
2019-03-19T09:46:20.058Z,65.80
2019-03-19T09:48:53.299Z,67.50
2019-03-19T09:51:25.799Z,66.90
2019-03-19T09:53:59.058Z,66.80
2019-03-19T09:56:31.988Z,65.80
2019-03-19T09:59:05.698Z,67.50
2019-03-19T10:01:38.020Z,66.20
2019-03-19T10:04:10.698Z,66.40
2019-03-19T10:06:43.442Z,65.70
2019-03-19T10:09:16.979Z,65.80
2019-03-19T10:11:49.059Z,66.00
2019-03-19T10:14:21.959Z,66.50
2019-03-19T10:16:55.440Z,67.00
2019-03-19T10:19:28.839Z,65.70
2019-03-19T10:22:00.559Z,66.30
2019-03-19T10:24:33.727Z,67.50
2019-03-19T10:27:07.074Z,64.60
2019-03-19T10:29:39.968Z,64.30
2019-03-19T10:32:12.627Z,63.50
2019-03-19T10:34:45.948Z,64.00
2019-03-19T10:37:18.387Z,65.00
2019-03-19T10:39:50.646Z,63.60
2019-03-19T10:42:23.303Z,64.00
2019-03-19T10:44:56.915Z,62.10
2019-03-19T10:47:29.725Z,63.60
2019-03-19T10:50:02.020Z,64.50
2019-03-19T10:52:33.621Z,65.30
2019-03-19T10:55:05.840Z,64.30
2019-03-19T10:57:38.850Z,65.10
2019-03-19T11:00:17.361Z,64.30
2019-03-19T11:02:51.765Z,64.40
2019-03-19T11:05:24.197Z,64.10
2019-03-19T11:07:56.331Z,64.50
2019-03-19T11:10:29.091Z,64.70
2019-03-19T11:12:59.691Z,64.30
2019-03-19T11:15:32.892Z,65.10
2019-03-19T11:18:05.531Z,65.10
2019-03-19T11:20:37.810Z,64.30
2019-03-19T11:23:10.972Z,65.00
2019-03-19T11:25:53.922Z,66.60
2019-03-19T11:28:18.853Z,66.20
2019-03-19T11:30:52.290Z,66.50
2019-03-19T11:33:24.850Z,66.60
2019-03-19T11:35:57.970Z,67.50
2019-03-19T11:38:30.529Z,67.90
2019-03-19T11:41:03.868Z,69.30
2019-03-19T11:43:36.670Z,69.80
2019-03-19T11:46:09.590Z,68.10
2019-03-19T11:48:42.777Z,67.30
2019-03-19T11:51:15.871Z,65.80
2019-03-19T11:53:49.031Z,65.90
2019-03-19T11:56:22.590Z,66.00
2019-03-19T11:58:56.010Z,65.10
2019-03-19T12:01:29.410Z,65.10
2019-03-19T12:04:01.451Z,66.80
2019-03-19T12:06:33.911Z,67.90
2019-03-19T12:09:08.938Z,68.90
2019-03-19T12:11:40.912Z,67.80
2019-03-19T12:14:14.470Z,67.10
2019-03-19T12:16:47.850Z,67.80
2019-03-19T12:19:20.550Z,68.20
2019-03-19T12:21:53.550Z,68.30
2019-03-19T12:24:26.369Z,69.10
2019-03-19T12:26:59.069Z,69.30
2019-03-19T12:29:32.330Z,70.30
2019-03-19T12:32:05.370Z,71.40
2019-03-19T12:34:37.350Z,71.00
2019-03-19T12:37:10.131Z,69.70
2019-03-19T12:39:43.091Z,70.00
2019-03-19T12:42:16.355Z,70.30
2019-03-19T12:44:49.580Z,69.60
2019-03-19T12:47:22.370Z,69.50
2019-03-19T12:49:54.890Z,69.70
2019-03-19T12:52:27.749Z,69.00
2019-03-19T12:55:00.930Z,69.50
2019-03-19T12:57:34.409Z,70.10
2019-03-19T13:00:08.132Z,69.90
2019-03-19T13:02:40.310Z,68.80
2019-03-19T13:05:13.110Z,67.70
2019-03-19T13:07:46.151Z,68.00
2019-03-19T13:10:20.090Z,67.00
2019-03-19T13:12:52.230Z,66.30
2019-03-19T13:15:25.130Z,66.20
2019-03-19T13:17:57.670Z,65.70
2019-03-19T13:20:31.270Z,66.50
2019-03-19T13:23:03.490Z,67.40
2019-03-19T13:25:36.573Z,68.30
2019-03-19T13:28:09.510Z,67.00
2019-03-19T13:30:45.299Z,67.70
2019-03-19T13:33:15.751Z,67.50
2019-03-19T13:35:49.170Z,65.90
2019-03-19T13:38:22.112Z,65.20
2019-03-19T13:40:56.170Z,65.40
2019-03-19T13:43:28.271Z,65.40
2019-03-19T13:46:01.270Z,65.80
2019-03-19T13:48:33.690Z,65.80
2019-03-19T13:51:06.630Z,65.80
2019-03-19T13:53:39.111Z,66.60
2019-03-19T13:56:12.910Z,65.90
2019-03-19T13:58:45.792Z,66.20
2019-03-19T14:01:18.430Z,67.60
2019-03-19T14:03:50.912Z,66.40
2019-03-19T14:06:23.822Z,66.50
2019-03-19T14:08:56.242Z,65.50
2019-03-19T14:11:29.122Z,64.70
2019-03-19T14:14:02.562Z,65.60
2019-03-19T14:16:35.408Z,65.80
2019-03-19T14:19:09.348Z,65.70
2019-03-19T14:21:42.793Z,63.80
2019-03-19T14:24:16.248Z,63.30
2019-03-19T14:26:50.483Z,62.90
2019-03-19T14:29:23.947Z,62.30
2019-03-19T14:31:57.508Z,62.50
2019-03-19T14:34:30.591Z,62.00
2019-03-19T14:37:03.067Z,61.40
2019-03-19T14:39:36.648Z,61.50
2019-03-19T14:42:09.848Z,61.20
2019-03-19T14:44:42.938Z,60.70
2019-03-19T14:47:15.378Z,60.50
2019-03-19T14:49:49.942Z,59.60
2019-03-19T14:52:22.380Z,59.20
2019-03-19T14:54:55.077Z,58.50
2019-03-19T14:57:27.359Z,59.10
2019-03-19T15:00:00.777Z,58.80
2019-03-19T15:02:33.338Z,58.10
2019-03-19T15:05:06.240Z,58.50
2019-03-19T15:07:39.438Z,58.90
2019-03-19T15:10:14.257Z,58.80
2019-03-19T15:12:47.762Z,58.70
2019-03-19T15:15:20.541Z,57.60
2019-03-19T15:17:52.891Z,56.40
2019-03-19T15:20:26.237Z,56.40
2019-03-19T15:22:58.479Z,56.50
2019-03-19T15:25:31.317Z,55.30
2019-03-19T15:28:04.937Z,55.20
2019-03-19T15:30:37.057Z,55.10
2019-03-19T15:33:10.317Z,54.70
2019-03-19T15:35:43.717Z,54.30
2019-03-19T15:38:16.818Z,54.10
2019-03-19T15:40:49.517Z,54.20
2019-03-19T15:43:21.837Z,54.20
2019-03-19T15:45:54.057Z,53.40
2019-03-19T15:48:26.800Z,53.30
2019-03-19T15:50:59.320Z,53.30
2019-03-19T15:53:31.999Z,54.80
2019-03-19T15:56:04.887Z,54.60
2019-03-19T15:58:36.956Z,54.50
2019-03-19T16:01:10.767Z,54.10
2019-03-19T16:03:42.908Z,53.90
2019-03-19T16:06:14.947Z,53.90
2019-03-19T16:08:46.835Z,53.70
2019-03-19T16:11:18.738Z,53.60
2019-03-19T16:13:50.697Z,53.40
2019-03-19T16:16:23.645Z,53.80
2019-03-19T16:18:56.479Z,53.00
2019-03-19T16:21:31.627Z,52.80
2019-03-19T16:24:04.393Z,53.40
2019-03-19T16:26:37.356Z,51.80
2019-03-19T16:29:09.876Z,52.20
2019-03-19T16:31:50.710Z,52.90
2019-03-19T16:34:15.836Z,53.10
2019-03-19T16:36:48.329Z,53.70
2019-03-19T16:39:21.474Z,54.20
2019-03-19T16:41:54.149Z,55.30
2019-03-19T16:44:26.970Z,56.00
2019-03-19T16:46:59.709Z,56.30
2019-03-19T16:49:32.815Z,56.50
2019-03-19T16:52:05.630Z,57.00
2019-03-19T16:54:38.670Z,57.10
2019-03-19T16:57:11.308Z,56.90
2019-03-19T16:59:44.250Z,57.40
2019-03-19T17:02:17.043Z,57.60
2019-03-19T17:04:49.808Z,57.90
2019-03-19T17:07:22.550Z,57.80
2019-03-19T17:09:54.473Z,58.10
2019-03-19T17:12:28.313Z,58.40
2019-03-19T17:15:01.194Z,58.70
2019-03-19T17:17:33.354Z,58.80
2019-03-19T17:20:06.437Z,59.10
2019-03-19T17:22:39.353Z,59.20
2019-03-19T17:25:13.515Z,59.10
2019-03-19T17:27:46.333Z,59.00
2019-03-19T17:30:22.313Z,59.60
2019-03-19T17:32:54.864Z,59.50
2019-03-19T17:35:27.653Z,59.60
2019-03-19T17:38:00.633Z,59.50
2019-03-19T17:40:41.303Z,59.50
2019-03-19T17:43:08.274Z,59.50
2019-03-19T17:45:41.194Z,58.90
2019-03-19T17:48:16.396Z,58.30
2019-03-19T17:50:49.515Z,58.20
2019-03-19T17:53:21.874Z,58.30
2019-03-19T17:55:55.088Z,58.20
2019-03-19T17:58:28.254Z,58.30
2019-03-19T18:01:00.514Z,58.40
2019-03-19T18:03:33.513Z,58.80
2019-03-19T18:06:06.814Z,59.00
2019-03-19T18:08:39.375Z,59.10
2019-03-19T18:11:11.814Z,59.70
2019-03-19T18:13:44.813Z,58.90
2019-03-19T18:16:18.273Z,58.70
2019-03-19T18:18:52.014Z,58.60
2019-03-19T18:21:25.713Z,58.40
2019-03-19T18:23:59.317Z,58.70
2019-03-19T18:26:33.053Z,59.10
2019-03-19T18:29:06.093Z,58.90
2019-03-19T18:31:38.477Z,58.70
2019-03-19T18:34:10.768Z,58.70
2019-03-19T18:36:44.394Z,58.30
2019-03-19T18:39:16.673Z,58.60
2019-03-19T18:41:50.391Z,58.80
2019-03-19T18:44:22.513Z,58.80
2019-03-19T18:46:55.174Z,58.90
2019-03-19T18:49:28.496Z,59.10
2019-03-19T18:52:00.419Z,58.90
2019-03-19T18:54:33.513Z,58.60
2019-03-19T18:57:06.235Z,58.60
2019-03-19T18:59:38.793Z,58.60
2019-03-19T19:02:11.714Z,58.80
2019-03-19T19:04:44.814Z,58.70
2019-03-19T19:07:18.096Z,58.70
2019-03-19T19:09:51.413Z,58.70
2019-03-19T19:12:24.253Z,58.50
2019-03-19T19:14:56.774Z,58.30
2019-03-19T19:17:29.633Z,58.40
2019-03-19T19:20:01.993Z,58.40
2019-03-19T19:22:34.835Z,57.90
2019-03-19T19:25:08.714Z,58.60
2019-03-19T19:27:41.113Z,58.70
2019-03-19T19:30:16.234Z,59.10
2019-03-19T19:32:48.716Z,59.60
2019-03-19T19:35:21.334Z,60.30
2019-03-19T19:37:54.432Z,59.60
2019-03-19T19:40:27.216Z,59.20
2019-03-19T19:43:00.192Z,58.50
2019-03-19T19:45:33.553Z,58.30
2019-03-19T19:48:06.779Z,58.20
2019-03-19T19:50:39.841Z,57.90
2019-03-19T19:53:15.746Z,58.00
2019-03-19T19:55:48.713Z,58.00
2019-03-19T19:58:21.814Z,57.90
2019-03-19T20:00:54.234Z,58.10
2019-03-19T20:03:26.712Z,58.30
2019-03-19T20:05:58.673Z,58.50
2019-03-19T20:08:32.155Z,58.70
2019-03-19T20:11:05.052Z,58.60
2019-03-19T20:13:37.513Z,58.50
2019-03-19T20:16:10.453Z,58.40
2019-03-19T20:18:43.329Z,58.40
2019-03-19T20:21:15.109Z,58.50
2019-03-19T20:23:47.550Z,58.70
2019-03-19T20:26:20.027Z,59.00
2019-03-19T20:28:53.369Z,59.10
2019-03-19T20:31:25.909Z,59.20
2019-03-19T20:33:58.630Z,59.20
2019-03-19T20:36:31.589Z,59.20
2019-03-19T20:39:06.470Z,58.90
2019-03-19T20:41:39.892Z,59.00
2019-03-19T20:44:13.149Z,59.10
2019-03-19T20:46:46.270Z,59.40
2019-03-19T20:49:18.869Z,59.50
2019-03-19T20:51:51.629Z,59.40
2019-03-19T20:54:25.349Z,58.90
2019-03-19T20:56:58.669Z,59.30
2019-03-19T20:59:32.009Z,59.60
2019-03-19T21:02:04.429Z,59.80
2019-03-19T21:04:37.130Z,59.90
2019-03-19T21:07:08.990Z,60.10
2019-03-19T21:09:43.089Z,60.10
2019-03-19T21:12:17.269Z,60.20
2019-03-19T21:14:49.949Z,60.10
2019-03-19T21:17:23.589Z,60.20
2019-03-19T21:19:55.651Z,60.00
2019-03-19T21:22:28.410Z,62.60
2019-03-19T21:25:01.349Z,60.90
2019-03-19T21:27:33.350Z,60.50
2019-03-19T21:30:06.030Z,60.90
2019-03-19T21:32:38.386Z,61.40
2019-03-19T21:35:10.649Z,61.90
2019-03-19T21:37:43.709Z,62.10
2019-03-19T21:40:16.715Z,62.00
2019-03-19T21:42:49.649Z,62.00
2019-03-19T21:45:22.976Z,62.00
2019-03-19T21:47:56.388Z,62.10
2019-03-19T21:50:28.231Z,62.40
2019-03-19T21:53:01.029Z,62.80
2019-03-19T21:55:34.452Z,62.40
2019-03-19T21:58:07.132Z,62.50
2019-03-19T22:00:39.349Z,62.80
2019-03-19T22:03:11.789Z,63.00
2019-03-19T22:05:44.149Z,63.30
2019-03-19T22:08:16.989Z,63.40
2019-03-19T22:10:49.949Z,63.20
2019-03-19T22:13:23.389Z,63.20
2019-03-19T22:15:56.189Z,63.10
2019-03-19T22:18:28.290Z,63.30
2019-03-19T22:21:01.183Z,62.90
2019-03-19T22:23:34.170Z,62.80
2019-03-19T22:26:06.770Z,63.20
2019-03-19T22:28:38.852Z,63.30
2019-03-19T22:31:12.230Z,63.20
2019-03-19T22:33:45.088Z,63.40
2019-03-19T22:36:18.171Z,63.50
2019-03-19T22:38:50.689Z,63.20
2019-03-19T22:41:23.052Z,63.40
2019-03-19T22:43:55.430Z,63.50
2019-03-19T22:46:27.770Z,63.60
2019-03-19T22:49:01.469Z,63.70
2019-03-19T22:51:34.910Z,63.60
2019-03-19T22:54:08.889Z,63.50
2019-03-19T22:56:42.049Z,63.50
2019-03-19T22:59:14.489Z,63.70
2019-03-19T23:01:47.629Z,64.00
2019-03-19T23:04:27.180Z,64.10
2019-03-19T23:06:55.709Z,64.20
2019-03-19T23:09:29.010Z,64.20
2019-03-19T23:12:01.330Z,64.30
2019-03-19T23:14:34.510Z,64.10
2019-03-19T23:17:07.129Z,63.90
2019-03-19T23:19:40.889Z,63.90
2019-03-19T23:22:14.530Z,64.00
2019-03-19T23:24:47.569Z,64.20
2019-03-19T23:27:20.170Z,64.20
2019-03-19T23:29:53.108Z,64.20
2019-03-19T23:32:25.813Z,64.30
2019-03-19T23:34:57.827Z,64.20
2019-03-19T23:37:30.491Z,64.30
2019-03-19T23:40:03.530Z,64.30
2019-03-19T23:42:35.649Z,64.30
2019-03-19T23:45:08.149Z,64.30
2019-03-19T23:47:41.790Z,64.60
2019-03-19T23:50:15.109Z,64.60
2019-03-19T23:52:47.349Z,64.60
2019-03-19T23:55:20.290Z,65.00
2019-03-19T23:57:53.050Z,65.00
